sensor_id;sensor_type;location;lat;lon;timestamp;pressure;altitude;pressure_sealevel;temperature;humidity
33486;BME280;19824;52.098;5.004;2023-03-18T06:02:44;100928.50;;;13.30;86.88
33486;BME280;19824;52.098;5.004;2023-03-18T06:05:29;100922.31;;;13.30;87.75
33486;BME280;19824;52.098;5.004;2023-03-18T06:08:05;100924.00;;;13.31;87.66
33486;BME280;19824;52.098;5.004;2023-03-18T06:10:36;100909.78;;;13.30;87.21
33486;BME280;19824;52.098;5.004;2023-03-18T06:13:12;100920.63;;;13.29;87.81
33486;BME280;19824;52.098;5.004;2023-03-18T06:15:42;100920.28;;;13.24;87.82
33486;BME280;19824;52.098;5.004;2023-03-18T06:18:21;100922.59;;;13.19;87.33
33486;BME280;19824;52.098;5.004;2023-03-18T06:20:51;100931.06;;;13.14;87.69
33486;BME280;19824;52.098;5.004;2023-03-18T06:23:28;100933.22;;;13.11;87.85
33486;BME280;19824;52.098;5.004;2023-03-18T06:26:05;100933.53;;;13.08;88.15
33486;BME280;19824;52.098;5.004;2023-03-18T06:28:36;100935.06;;;13.10;88.19
33486;BME280;19824;52.098;5.004;2023-03-18T06:31:13;100944.91;;;13.10;88.69
33486;BME280;19824;52.098;5.004;2023-03-18T06:33:45;100952.13;;;13.09;89.04
33486;BME280;19824;52.098;5.004;2023-03-18T06:36:21;100956.09;;;13.05;88.67
33486;BME280;19824;52.098;5.004;2023-03-18T06:38:52;100965.78;;;13.06;88.70
33486;BME280;19824;52.098;5.004;2023-03-18T06:41:28;100962.44;;;13.04;88.81
33486;BME280;19824;52.098;5.004;2023-03-18T06:44:06;100966.25;;;13.02;89.30
33486;BME280;19824;52.098;5.004;2023-03-18T06:46:36;100959.53;;;12.98;89.43
33486;BME280;19824;52.098;5.004;2023-03-18T06:49:15;100965.06;;;12.96;89.09
33486;BME280;19824;52.098;5.004;2023-03-18T06:51:45;100976.25;;;13.00;89.82
33486;BME280;19824;52.098;5.004;2023-03-18T06:54:22;100975.88;;;12.95;90.05
33486;BME280;19824;52.098;5.004;2023-03-18T06:57:00;100968.38;;;12.98;89.93
33486;BME280;19824;52.098;5.004;2023-03-18T06:59:30;100965.91;;;13.05;89.83
33486;BME280;19824;52.098;5.004;2023-03-18T07:02:08;100970.03;;;13.17;89.34
33486;BME280;19824;52.098;5.004;2023-03-18T07:04:41;100977.28;;;13.24;90.47
33486;BME280;19824;52.098;5.004;2023-03-18T07:07:18;100978.00;;;13.34;90.61
33486;BME280;19824;52.098;5.004;2023-03-18T07:09:48;100980.75;;;13.42;90.02
33486;BME280;19824;52.098;5.004;2023-03-18T07:12:24;100988.97;;;13.49;90.58
33486;BME280;19824;52.098;5.004;2023-03-18T07:14:56;100988.19;;;13.56;90.68
33486;BME280;19824;52.098;5.004;2023-03-18T07:17:33;100984.34;;;13.59;90.58
33486;BME280;19824;52.098;5.004;2023-03-18T07:20:07;100991.09;;;13.70;90.20
33486;BME280;19824;52.098;5.004;2023-03-18T07:22:45;100993.56;;;13.97;90.13
33486;BME280;19824;52.098;5.004;2023-03-18T07:25:22;100988.06;;;14.48;90.37
33486;BME280;19824;52.098;5.004;2023-03-18T07:27:52;100995.97;;;15.13;90.24
33486;BME280;19824;52.098;5.004;2023-03-18T07:30:29;100996.03;;;15.91;89.93
33486;BME280;19824;52.098;5.004;2023-03-18T07:32:59;100992.50;;;16.60;88.90
33486;BME280;19824;52.098;5.004;2023-03-18T07:35:38;100987.94;;;17.27;87.48
33486;BME280;19824;52.098;5.004;2023-03-18T07:38:09;100990.06;;;17.97;86.57
33486;BME280;19824;52.098;5.004;2023-03-18T07:40:47;100987.66;;;18.52;84.61
33486;BME280;19824;52.098;5.004;2023-03-18T07:43:17;100991.66;;;18.98;82.52
33486;BME280;19824;52.098;5.004;2023-03-18T07:45:54;100992.56;;;19.53;80.79
33486;BME280;19824;52.098;5.004;2023-03-18T07:48:24;100992.41;;;19.95;78.72
33486;BME280;19824;52.098;5.004;2023-03-18T07:51:04;100986.00;;;20.36;76.11
33486;BME280;19824;52.098;5.004;2023-03-18T07:53:35;100999.88;;;20.80;73.85
33486;BME280;19824;52.098;5.004;2023-03-18T07:56:12;100988.88;;;20.81;72.60
33486;BME280;19824;52.098;5.004;2023-03-18T07:58:49;100991.19;;;21.10;71.20
33486;BME280;19824;52.098;5.004;2023-03-18T08:01:19;100997.44;;;21.43;69.75
33486;BME280;19824;52.098;5.004;2023-03-18T08:03:56;100990.75;;;21.78;67.82
33486;BME280;19824;52.098;5.004;2023-03-18T08:06:28;100994.84;;;22.06;65.35
33486;BME280;19824;52.098;5.004;2023-03-18T08:09:06;100997.34;;;22.14;64.93
33486;BME280;19824;52.098;5.004;2023-03-18T08:11:36;100992.72;;;22.21;64.31
33486;BME280;19824;52.098;5.004;2023-03-18T08:14:13;100991.47;;;22.17;63.19
33486;BME280;19824;52.098;5.004;2023-03-18T08:16:43;100989.53;;;22.31;61.55
33486;BME280;19824;52.098;5.004;2023-03-18T08:19:20;100985.88;;;22.63;60.62
33486;BME280;19824;52.098;5.004;2023-03-18T08:21:52;100986.25;;;22.66;58.61
33486;BME280;19824;52.098;5.004;2023-03-18T08:24:30;100973.69;;;22.71;59.29
33486;BME280;19824;52.098;5.004;2023-03-18T08:27:00;100979.66;;;22.86;59.22
33486;BME280;19824;52.098;5.004;2023-03-18T08:29:37;100979.34;;;23.01;58.37
33486;BME280;19824;52.098;5.004;2023-03-18T08:32:08;100982.00;;;23.38;57.98
33486;BME280;19824;52.098;5.004;2023-03-18T08:34:45;100983.41;;;23.65;56.55
33486;BME280;19824;52.098;5.004;2023-03-18T08:37:18;100985.31;;;23.89;55.21
33486;BME280;19824;52.098;5.004;2023-03-18T08:39:55;100993.03;;;23.68;54.66
33486;BME280;19824;52.098;5.004;2023-03-18T08:42:32;100991.44;;;23.05;54.32
33486;BME280;19824;52.098;5.004;2023-03-18T08:45:02;100991.88;;;22.27;55.29
33486;BME280;19824;52.098;5.004;2023-03-18T08:47:40;101009.97;;;21.70;57.16
33486;BME280;19824;52.098;5.004;2023-03-18T08:50:17;101011.59;;;21.39;57.76
33486;BME280;19824;52.098;5.004;2023-03-18T08:52:50;101006.59;;;21.23;57.95
33486;BME280;19824;52.098;5.004;2023-03-18T08:55:29;101008.28;;;21.50;57.39
33486;BME280;19824;52.098;5.004;2023-03-18T08:58:00;101020.53;;;22.04;57.66
33486;BME280;19824;52.098;5.004;2023-03-18T09:00:39;101003.16;;;22.68;56.43
33486;BME280;19824;52.098;5.004;2023-03-18T09:03:17;100998.97;;;23.03;55.83
33486;BME280;19824;52.098;5.004;2023-03-18T09:05:47;101008.81;;;23.35;54.92
33486;BME280;19824;52.098;5.004;2023-03-18T09:08:27;101014.91;;;23.30;54.23
33486;BME280;19824;52.098;5.004;2023-03-18T09:11:05;101017.34;;;23.63;54.26
33486;BME280;19824;52.098;5.004;2023-03-18T09:13:36;101007.22;;;23.94;53.48
33486;BME280;19824;52.098;5.004;2023-03-18T09:16:13;101013.88;;;24.34;52.87
33486;BME280;19824;52.098;5.004;2023-03-18T09:18:43;101013.28;;;24.50;51.50
33486;BME280;19824;52.098;5.004;2023-03-18T09:21:20;101015.75;;;24.69;51.38
33486;BME280;19824;52.098;5.004;2023-03-18T09:23:52;101024.91;;;25.04;50.55
33486;BME280;19824;52.098;5.004;2023-03-18T09:26:29;101035.59;;;24.87;50.07
33486;BME280;19824;52.098;5.004;2023-03-18T09:28:59;101043.50;;;24.42;50.11
33486;BME280;19824;52.098;5.004;2023-03-18T09:31:36;101054.97;;;23.66;51.29
33486;BME280;19824;52.098;5.004;2023-03-18T09:34:06;101051.00;;;23.13;52.19
33486;BME280;19824;52.098;5.004;2023-03-18T09:36:46;101053.84;;;22.87;52.10
33486;BME280;19824;52.098;5.004;2023-03-18T09:39:20;101049.59;;;22.60;52.80
33486;BME280;19824;52.098;5.004;2023-03-18T09:42:12;101051.31;;;22.92;52.94
33486;BME280;19824;52.098;5.004;2023-03-18T09:44:44;101041.22;;;23.61;52.79
33486;BME280;19824;52.098;5.004;2023-03-18T09:47:44;101048.09;;;23.87;51.08
33486;BME280;19824;52.098;5.004;2023-03-18T09:50:31;101043.88;;;23.91;51.17
33486;BME280;19824;52.098;5.004;2023-03-18T09:53:18;101039.16;;;24.05;51.72
33486;BME280;19824;52.098;5.004;2023-03-18T09:55:55;101035.16;;;24.61;49.63
33486;BME280;19824;52.098;5.004;2023-03-18T09:58:46;101040.38;;;24.63;49.54
33486;BME280;19824;52.098;5.004;2023-03-18T10:01:26;101028.88;;;24.90;49.67
33486;BME280;19824;52.098;5.004;2023-03-18T10:04:02;101029.25;;;24.93;48.86
33486;BME280;19824;52.098;5.004;2023-03-18T10:06:41;101022.88;;;24.99;48.92
33486;BME280;19824;52.098;5.004;2023-03-18T10:09:18;101023.84;;;25.57;48.28
33486;BME280;19824;52.098;5.004;2023-03-18T10:12:06;101022.81;;;25.70;46.57
33486;BME280;19824;52.098;5.004;2023-03-18T10:14:44;101024.34;;;25.88;46.71
33486;BME280;19824;52.098;5.004;2023-03-18T10:17:27;101021.34;;;25.67;45.90
33486;BME280;19824;52.098;5.004;2023-03-18T10:20:01;101022.88;;;25.40;46.76
33486;BME280;19824;52.098;5.004;2023-03-18T10:23:00;101029.34;;;24.87;47.40
33486;BME280;19824;52.098;5.004;2023-03-18T10:25:36;101029.25;;;24.28;48.28
33486;BME280;19824;52.098;5.004;2023-03-18T10:31:50;101036.84;;;23.84;48.75
33486;BME280;19824;52.098;5.004;2023-03-18T10:34:40;101037.03;;;23.34;50.33
33486;BME280;19824;52.098;5.004;2023-03-18T10:37:19;101043.28;;;23.10;50.27
33486;BME280;19824;52.098;5.004;2023-03-18T10:39:59;101042.97;;;22.87;51.25
33486;BME280;19824;52.098;5.004;2023-03-18T10:42:31;101045.25;;;22.90;51.71
33486;BME280;19824;52.098;5.004;2023-03-18T10:45:20;101045.56;;;22.69;51.44
33486;BME280;19824;52.098;5.004;2023-03-18T10:48:03;101046.09;;;22.47;51.40
33486;BME280;19824;52.098;5.004;2023-03-18T10:50:47;101045.72;;;22.37;51.76
33486;BME280;19824;52.098;5.004;2023-03-18T10:53:26;101052.25;;;22.03;53.11
33486;BME280;19824;52.098;5.004;2023-03-18T10:56:07;101057.28;;;21.93;53.58
33486;BME280;19824;52.098;5.004;2023-03-18T10:58:44;101049.56;;;21.52;53.99
33486;BME280;19824;52.098;5.004;2023-03-18T11:01:20;101057.03;;;21.24;54.97
33486;BME280;19824;52.098;5.004;2023-03-18T11:04:01;101062.03;;;21.20;55.03
33486;BME280;19824;52.098;5.004;2023-03-18T11:06:39;101054.31;;;21.04;56.07
33486;BME280;19824;52.098;5.004;2023-03-18T11:09:20;101061.13;;;20.81;55.61
33486;BME280;19824;52.098;5.004;2023-03-18T11:11:56;101059.13;;;20.62;56.64
33486;BME280;19824;52.098;5.004;2023-03-18T11:14:34;101054.72;;;20.48;57.30
33486;BME280;19824;52.098;5.004;2023-03-18T11:17:20;101052.34;;;20.32;57.86
33486;BME280;19824;52.098;5.004;2023-03-18T11:20:03;101061.66;;;20.17;57.99
33486;BME280;19824;52.098;5.004;2023-03-18T11:22:44;101060.56;;;20.45;57.56
33486;BME280;19824;52.098;5.004;2023-03-18T11:25:22;101059.75;;;20.58;57.85
33486;BME280;19824;52.098;5.004;2023-03-18T11:28:04;101053.69;;;20.49;57.52
33486;BME280;19824;52.098;5.004;2023-03-18T11:30:45;101056.66;;;20.20;58.56
33486;BME280;19824;52.098;5.004;2023-03-18T11:33:30;101058.91;;;20.10;59.13
33486;BME280;19824;52.098;5.004;2023-03-18T11:36:15;101056.19;;;20.10;58.46
33486;BME280;19824;52.098;5.004;2023-03-18T11:38:56;101056.13;;;19.97;58.42
33486;BME280;19824;52.098;5.004;2023-03-18T11:41:37;101052.38;;;19.98;58.42
33486;BME280;19824;52.098;5.004;2023-03-18T11:44:16;101053.13;;;19.92;58.26
33486;BME280;19824;52.098;5.004;2023-03-18T11:46:58;101047.72;;;19.92;58.78
33486;BME280;19824;52.098;5.004;2023-03-18T11:49:33;101046.16;;;20.04;59.18
33486;BME280;19824;52.098;5.004;2023-03-18T11:52:27;101047.47;;;20.15;58.89
33486;BME280;19824;52.098;5.004;2023-03-18T11:55:20;101053.72;;;20.15;58.48
33486;BME280;19824;52.098;5.004;2023-03-18T11:58:24;101051.25;;;20.20;58.68
33486;BME280;19824;52.098;5.004;2023-03-18T12:01:11;101047.41;;;20.02;58.80
33486;BME280;19824;52.098;5.004;2023-03-18T12:03:59;101046.38;;;20.03;58.44
33486;BME280;19824;52.098;5.004;2023-03-18T12:06:49;101047.03;;;20.05;58.04
33486;BME280;19824;52.098;5.004;2023-03-18T12:09:27;101047.09;;;20.18;58.18
33486;BME280;19824;52.098;5.004;2023-03-18T12:12:30;101042.91;;;20.15;58.50
33486;BME280;19824;52.098;5.004;2023-03-18T12:15:21;101053.00;;;20.34;57.53
33486;BME280;19824;52.098;5.004;2023-03-18T12:18:01;101050.00;;;20.23;57.06
33486;BME280;19824;52.098;5.004;2023-03-18T12:20:48;101053.34;;;19.91;57.03
33486;BME280;19824;52.098;5.004;2023-03-18T12:23:52;101045.41;;;19.62;58.16
33486;BME280;19824;52.098;5.004;2023-03-18T12:26:38;101048.97;;;19.63;58.03
33486;BME280;19824;52.098;5.004;2023-03-18T12:29:37;101054.28;;;19.50;59.65
33486;BME280;19824;52.098;5.004;2023-03-18T12:32:25;101054.66;;;19.26;60.40
33486;BME280;19824;52.098;5.004;2023-03-18T12:35:29;101046.13;;;19.22;61.04
33486;BME280;19824;52.098;5.004;2023-03-18T12:41:45;101054.25;;;19.08;61.32
33486;BME280;19824;52.098;5.004;2023-03-18T12:44:38;101056.88;;;19.01;61.56
33486;BME280;19824;52.098;5.004;2023-03-18T12:47:18;101049.38;;;18.97;61.88
33486;BME280;19824;52.098;5.004;2023-03-18T12:49:59;101052.72;;;18.99;61.16
33486;BME280;19824;52.098;5.004;2023-03-18T12:52:37;101056.88;;;19.01;61.41
33486;BME280;19824;52.098;5.004;2023-03-18T12:55:20;101050.44;;;19.17;61.38
33486;BME280;19824;52.098;5.004;2023-03-18T12:57:57;101051.47;;;19.37;60.61
33486;BME280;19824;52.098;5.004;2023-03-18T13:00:41;101036.75;;;19.67;60.16
33486;BME280;19824;52.098;5.004;2023-03-18T13:03:27;101040.66;;;19.91;59.40
33486;BME280;19824;52.098;5.004;2023-03-18T13:06:11;101038.06;;;20.04;58.45
33486;BME280;19824;52.098;5.004;2023-03-18T13:08:56;101033.94;;;20.08;58.39
33486;BME280;19824;52.098;5.004;2023-03-18T13:11:57;101029.63;;;20.20;58.22
33486;BME280;19824;52.098;5.004;2023-03-18T13:14:56;101036.06;;;20.19;57.91
33486;BME280;19824;52.098;5.004;2023-03-18T13:17:32;101034.59;;;20.17;57.42
33486;BME280;19824;52.098;5.004;2023-03-18T13:20:12;101028.75;;;20.13;58.68
33486;BME280;19824;52.098;5.004;2023-03-18T13:23:03;101022.53;;;20.19;58.38
33486;BME280;19824;52.098;5.004;2023-03-18T13:25:56;101026.41;;;20.44;57.15
33486;BME280;19824;52.098;5.004;2023-03-18T13:28:53;101029.13;;;20.44;56.93
33486;BME280;19824;52.098;5.004;2023-03-18T13:31:47;101028.25;;;20.37;56.87
33486;BME280;19824;52.098;5.004;2023-03-18T13:38:14;101030.16;;;20.43;57.11
33486;BME280;19824;52.098;5.004;2023-03-18T13:41:04;101018.69;;;20.41;56.26
33486;BME280;19824;52.098;5.004;2023-03-18T13:43:45;101034.09;;;20.47;56.97
33486;BME280;19824;52.098;5.004;2023-03-18T13:46:27;101031.41;;;20.54;56.22
33486;BME280;19824;52.098;5.004;2023-03-18T13:49:16;101029.31;;;20.43;56.09
33486;BME280;19824;52.098;5.004;2023-03-18T13:51:57;101029.88;;;20.32;56.27
33486;BME280;19824;52.098;5.004;2023-03-18T13:54:33;101034.44;;;20.31;55.98
33486;BME280;19824;52.098;5.004;2023-03-18T13:57:34;101024.53;;;20.04;57.25
33486;BME280;19824;52.098;5.004;2023-03-18T14:00:38;101017.78;;;19.94;57.47
